sensor_id;sensor_type;location;lat;lon;timestamp;P1;durP1;ratioP1;P2;durP2;ratioP2
66542;SDS011;53395;37.360;-122.046;2023-12-07T00:01:20;1.42;;;0.45;;
66542;SDS011;53395;37.360;-122.046;2023-12-07T00:04:04;0.75;;;0.30;;
66542;SDS011;53395;37.360;-122.046;2023-12-07T00:06:49;1.00;;;0.30;;
66542;SDS011;53395;37.360;-122.046;2023-12-07T00:09:33;1.63;;;0.50;;
66542;SDS011;53395;37.360;-122.046;2023-12-07T00:12:18;1.83;;;0.40;;
66542;SDS011;53395;37.360;-122.046;2023-12-07T00:15:03;1.83;;;0.30;;
66542;SDS011;53395;37.360;-122.046;2023-12-07T00:17:47;0.73;;;0.30;;
66542;SDS011;53395;37.360;-122.046;2023-12-07T00:20:31;1.65;;;0.32;;
66542;SDS011;53395;37.360;-122.046;2023-12-07T00:23:16;0.95;;;0.20;;
66542;SDS011;53395;37.360;-122.046;2023-12-07T00:26:00;0.55;;;0.25;;
66542;SDS011;53395;37.360;-122.046;2023-12-07T00:28:45;0.82;;;0.30;;
66542;SDS011;53395;37.360;-122.046;2023-12-07T00:31:29;1.02;;;0.38;;
66542;SDS011;53395;37.360;-122.046;2023-12-07T00:34:14;1.33;;;0.50;;
66542;SDS011;53395;37.360;-122.046;2023-12-07T00:36:58;0.80;;;0.30;;
66542;SDS011;53395;37.360;-122.046;2023-12-07T00:39:43;0.73;;;0.30;;
66542;SDS011;53395;37.360;-122.046;2023-12-07T00:42:27;2.45;;;0.38;;
66542;SDS011;53395;37.360;-122.046;2023-12-07T00:45:12;0.98;;;0.30;;
66542;SDS011;53395;37.360;-122.046;2023-12-07T00:47:57;1.33;;;0.55;;
66542;SDS011;53395;37.360;-122.046;2023-12-07T00:50:41;0.95;;;0.30;;
66542;SDS011;53395;37.360;-122.046;2023-12-07T00:53:26;0.80;;;0.30;;
66542;SDS011;53395;37.360;-122.046;2023-12-07T00:56:10;1.38;;;0.40;;
66542;SDS011;53395;37.360;-122.046;2023-12-07T00:58:55;0.93;;;0.30;;
66542;SDS011;53395;37.360;-122.046;2023-12-07T01:01:39;0.98;;;0.17;;
66542;SDS011;53395;37.360;-122.046;2023-12-07T01:04:24;0.43;;;0.20;;
66542;SDS011;53395;37.360;-122.046;2023-12-07T01:07:08;1.48;;;0.20;;
66542;SDS011;53395;37.360;-122.046;2023-12-07T01:09:52;1.48;;;0.30;;
66542;SDS011;53395;37.360;-122.046;2023-12-07T01:12:37;1.30;;;0.30;;
66542;SDS011;53395;37.360;-122.046;2023-12-07T01:15:22;1.92;;;0.40;;
66542;SDS011;53395;37.360;-122.046;2023-12-07T01:18:06;1.10;;;0.30;;
66542;SDS011;53395;37.360;-122.046;2023-12-07T01:20:51;1.25;;;0.40;;
66542;SDS011;53395;37.360;-122.046;2023-12-07T01:23:35;1.90;;;0.45;;
66542;SDS011;53395;37.360;-122.046;2023-12-07T01:26:22;1.35;;;0.50;;
66542;SDS011;53395;37.360;-122.046;2023-12-07T01:29:06;2.53;;;0.65;;
66542;SDS011;53395;37.360;-122.046;2023-12-07T01:31:51;1.77;;;0.63;;
66542;SDS011;53395;37.360;-122.046;2023-12-07T01:34:36;2.30;;;0.52;;
66542;SDS011;53395;37.360;-122.046;2023-12-07T01:37:20;4.55;;;0.88;;
66542;SDS011;53395;37.360;-122.046;2023-12-07T01:40:05;2.47;;;0.47;;
66542;SDS011;53395;37.360;-122.046;2023-12-07T01:42:54;3.78;;;0.50;;
66542;SDS011;53395;37.360;-122.046;2023-12-07T01:45:39;4.25;;;0.70;;
66542;SDS011;53395;37.360;-122.046;2023-12-07T01:48:23;4.40;;;0.73;;
66542;SDS011;53395;37.360;-122.046;2023-12-07T01:51:08;5.65;;;0.80;;
66542;SDS011;53395;37.360;-122.046;2023-12-07T01:53:53;10.25;;;0.95;;
66542;SDS011;53395;37.360;-122.046;2023-12-07T01:56:38;10.60;;;1.00;;
66542;SDS011;53395;37.360;-122.046;2023-12-07T01:59:23;4.50;;;0.65;;
66542;SDS011;53395;37.360;-122.046;2023-12-07T02:02:07;5.20;;;1.00;;
66542;SDS011;53395;37.360;-122.046;2023-12-07T02:04:52;7.05;;;0.85;;
66542;SDS011;53395;37.360;-122.046;2023-12-07T02:07:37;5.57;;;0.68;;
66542;SDS011;53395;37.360;-122.046;2023-12-07T02:10:21;7.13;;;0.68;;
66542;SDS011;53395;37.360;-122.046;2023-12-07T02:13:06;4.82;;;0.88;;
66542;SDS011;53395;37.360;-122.046;2023-12-07T02:15:50;4.43;;;1.00;;
66542;SDS011;53395;37.360;-122.046;2023-12-07T02:18:38;7.75;;;1.00;;
66542;SDS011;53395;37.360;-122.046;2023-12-07T02:21:26;8.25;;;1.40;;
66542;SDS011;53395;37.360;-122.046;2023-12-07T02:24:13;8.05;;;1.05;;
66542;SDS011;53395;37.360;-122.046;2023-12-07T02:27:01;8.00;;;1.05;;
66542;SDS011;53395;37.360;-122.046;2023-12-07T02:29:46;9.52;;;1.17;;
66542;SDS011;53395;37.360;-122.046;2023-12-07T02:32:30;4.20;;;0.95;;
66542;SDS011;53395;37.360;-122.046;2023-12-07T02:35:15;6.15;;;0.90;;
66542;SDS011;53395;37.360;-122.046;2023-12-07T02:37:59;5.55;;;0.95;;
66542;SDS011;53395;37.360;-122.046;2023-12-07T02:40:45;4.90;;;0.90;;
66542;SDS011;53395;37.360;-122.046;2023-12-07T02:43:30;8.63;;;1.05;;
66542;SDS011;53395;37.360;-122.046;2023-12-07T02:46:15;6.47;;;1.20;;
66542;SDS011;53395;37.360;-122.046;2023-12-07T02:48:59;5.18;;;0.80;;
66542;SDS011;53395;37.360;-122.046;2023-12-07T02:51:44;5.90;;;1.05;;
66542;SDS011;53395;37.360;-122.046;2023-12-07T02:54:28;6.35;;;1.00;;
66542;SDS011;53395;37.360;-122.046;2023-12-07T02:57:12;5.63;;;0.85;;
66542;SDS011;53395;37.360;-122.046;2023-12-07T02:59:59;6.38;;;1.00;;
66542;SDS011;53395;37.360;-122.046;2023-12-07T03:02:43;7.10;;;0.98;;
66542;SDS011;53395;37.360;-122.046;2023-12-07T03:05:28;7.25;;;1.23;;
66542;SDS011;53395;37.360;-122.046;2023-12-07T03:08:12;8.07;;;1.10;;
66542;SDS011;53395;37.360;-122.046;2023-12-07T03:10:57;7.88;;;0.90;;
66542;SDS011;53395;37.360;-122.046;2023-12-07T03:13:41;7.35;;;1.05;;
66542;SDS011;53395;37.360;-122.046;2023-12-07T03:16:26;7.00;;;1.45;;
66542;SDS011;53395;37.360;-122.046;2023-12-07T03:19:10;4.55;;;0.85;;
66542;SDS011;53395;37.360;-122.046;2023-12-07T03:21:55;5.32;;;0.90;;
66542;SDS011;53395;37.360;-122.046;2023-12-07T03:24:40;6.65;;;1.27;;
66542;SDS011;53395;37.360;-122.046;2023-12-07T03:27:24;7.65;;;1.08;;
66542;SDS011;53395;37.360;-122.046;2023-12-07T03:30:09;5.30;;;0.90;;
66542;SDS011;53395;37.360;-122.046;2023-12-07T03:32:54;4.35;;;0.80;;
66542;SDS011;53395;37.360;-122.046;2023-12-07T03:35:39;6.43;;;1.45;;
66542;SDS011;53395;37.360;-122.046;2023-12-07T03:38:23;3.72;;;0.90;;
66542;SDS011;53395;37.360;-122.046;2023-12-07T03:41:08;5.10;;;1.00;;
66542;SDS011;53395;37.360;-122.046;2023-12-07T03:43:52;7.95;;;1.30;;
66542;SDS011;53395;37.360;-122.046;2023-12-07T03:46:36;8.50;;;1.40;;
66542;SDS011;53395;37.360;-122.046;2023-12-07T03:49:21;7.15;;;1.20;;
66542;SDS011;53395;37.360;-122.046;2023-12-07T03:52:05;5.72;;;1.52;;
66542;SDS011;53395;37.360;-122.046;2023-12-07T03:54:50;6.00;;;1.10;;
66542;SDS011;53395;37.360;-122.046;2023-12-07T03:57:35;5.53;;;1.25;;
66542;SDS011;53395;37.360;-122.046;2023-12-07T04:00:19;4.63;;;1.20;;
66542;SDS011;53395;37.360;-122.046;2023-12-07T04:03:04;5.65;;;1.35;;
66542;SDS011;53395;37.360;-122.046;2023-12-07T04:05:48;6.70;;;1.30;;
66542;SDS011;53395;37.360;-122.046;2023-12-07T04:08:33;6.25;;;1.52;;
66542;SDS011;53395;37.360;-122.046;2023-12-07T04:11:17;5.43;;;1.27;;
66542;SDS011;53395;37.360;-122.046;2023-12-07T04:14:02;5.90;;;1.40;;
66542;SDS011;53395;37.360;-122.046;2023-12-07T04:16:46;6.32;;;1.55;;
66542;SDS011;53395;37.360;-122.046;2023-12-07T04:19:31;6.80;;;1.27;;
66542;SDS011;53395;37.360;-122.046;2023-12-07T04:22:16;8.88;;;1.20;;
66542;SDS011;53395;37.360;-122.046;2023-12-07T04:25:00;7.45;;;1.40;;
66542;SDS011;53395;37.360;-122.046;2023-12-07T04:27:44;4.45;;;1.08;;
66542;SDS011;53395;37.360;-122.046;2023-12-07T04:30:29;7.78;;;1.30;;
66542;SDS011;53395;37.360;-122.046;2023-12-07T04:33:14;6.07;;;1.27;;
66542;SDS011;53395;37.360;-122.046;2023-12-07T04:35:58;7.18;;;1.17;;
66542;SDS011;53395;37.360;-122.046;2023-12-07T04:38:43;5.65;;;1.15;;
66542;SDS011;53395;37.360;-122.046;2023-12-07T04:41:27;6.75;;;1.15;;
66542;SDS011;53395;37.360;-122.046;2023-12-07T04:44:11;5.93;;;1.15;;
66542;SDS011;53395;37.360;-122.046;2023-12-07T04:46:56;5.15;;;1.00;;
66542;SDS011;53395;37.360;-122.046;2023-12-07T04:49:40;4.28;;;1.08;;
66542;SDS011;53395;37.360;-122.046;2023-12-07T04:52:25;6.00;;;1.17;;
66542;SDS011;53395;37.360;-122.046;2023-12-07T04:55:09;7.45;;;1.20;;
66542;SDS011;53395;37.360;-122.046;2023-12-07T04:57:54;11.52;;;1.85;;
66542;SDS011;53395;37.360;-122.046;2023-12-07T05:00:38;10.27;;;1.90;;
66542;SDS011;53395;37.360;-122.046;2023-12-07T05:03:23;5.47;;;1.10;;
66542;SDS011;53395;37.360;-122.046;2023-12-07T05:06:07;6.35;;;1.23;;
66542;SDS011;53395;37.360;-122.046;2023-12-07T05:08:51;4.70;;;1.70;;
66542;SDS011;53395;37.360;-122.046;2023-12-07T05:11:36;8.35;;;1.67;;
66542;SDS011;53395;37.360;-122.046;2023-12-07T05:14:21;9.18;;;1.15;;
66542;SDS011;53395;37.360;-122.046;2023-12-07T05:17:06;6.80;;;1.13;;
66542;SDS011;53395;37.360;-122.046;2023-12-07T05:19:50;4.18;;;1.20;;
66542;SDS011;53395;37.360;-122.046;2023-12-07T05:22:35;5.05;;;1.08;;
66542;SDS011;53395;37.360;-122.046;2023-12-07T05:25:19;8.20;;;1.63;;
66542;SDS011;53395;37.360;-122.046;2023-12-07T05:28:04;5.88;;;1.17;;
66542;SDS011;53395;37.360;-122.046;2023-12-07T05:30:48;6.18;;;1.40;;
66542;SDS011;53395;37.360;-122.046;2023-12-07T05:33:33;2.63;;;0.80;;
66542;SDS011;53395;37.360;-122.046;2023-12-07T05:36:17;5.60;;;1.20;;
66542;SDS011;53395;37.360;-122.046;2023-12-07T05:39:02;9.50;;;1.67;;
66542;SDS011;53395;37.360;-122.046;2023-12-07T05:41:47;6.28;;;1.85;;
66542;SDS011;53395;37.360;-122.046;2023-12-07T05:44:31;7.28;;;1.65;;
66542;SDS011;53395;37.360;-122.046;2023-12-07T05:47:16;6.13;;;1.50;;
66542;SDS011;53395;37.360;-122.046;2023-12-07T05:50:00;5.90;;;1.23;;
66542;SDS011;53395;37.360;-122.046;2023-12-07T05:52:47;7.93;;;1.58;;
66542;SDS011;53395;37.360;-122.046;2023-12-07T05:55:31;5.82;;;1.20;;
66542;SDS011;53395;37.360;-122.046;2023-12-07T05:58:16;5.13;;;1.10;;
66542;SDS011;53395;37.360;-122.046;2023-12-07T06:01:04;5.25;;;1.05;;
66542;SDS011;53395;37.360;-122.046;2023-12-07T06:03:49;5.22;;;1.30;;
66542;SDS011;53395;37.360;-122.046;2023-12-07T06:06:33;8.75;;;1.48;;
66542;SDS011;53395;37.360;-122.046;2023-12-07T06:09:18;9.27;;;1.60;;
66542;SDS011;53395;37.360;-122.046;2023-12-07T06:12:03;7.22;;;1.40;;
66542;SDS011;53395;37.360;-122.046;2023-12-07T06:14:48;6.05;;;1.27;;
66542;SDS011;53395;37.360;-122.046;2023-12-07T06:17:33;5.13;;;1.40;;
66542;SDS011;53395;37.360;-122.046;2023-12-07T06:20:17;8.90;;;1.83;;
66542;SDS011;53395;37.360;-122.046;2023-12-07T06:23:02;5.43;;;1.25;;
66542;SDS011;53395;37.360;-122.046;2023-12-07T06:25:47;4.38;;;1.15;;
66542;SDS011;53395;37.360;-122.046;2023-12-07T06:28:33;8.57;;;1.48;;
66542;SDS011;53395;37.360;-122.046;2023-12-07T06:31:17;5.85;;;1.15;;
66542;SDS011;53395;37.360;-122.046;2023-12-07T06:34:05;5.50;;;1.10;;
66542;SDS011;53395;37.360;-122.046;2023-12-07T06:36:49;5.47;;;1.15;;
66542;SDS011;53395;37.360;-122.046;2023-12-07T06:39:34;6.47;;;1.13;;
66542;SDS011;53395;37.360;-122.046;2023-12-07T06:42:18;5.05;;;1.30;;
66542;SDS011;53395;37.360;-122.046;2023-12-07T06:45:03;8.70;;;1.45;;
66542;SDS011;53395;37.360;-122.046;2023-12-07T06:47:47;5.93;;;1.17;;
66542;SDS011;53395;37.360;-122.046;2023-12-07T06:50:32;5.28;;;1.58;;
66542;SDS011;53395;37.360;-122.046;2023-12-07T06:53:16;6.80;;;1.35;;
66542;SDS011;53395;37.360;-122.046;2023-12-07T06:56:02;5.53;;;1.05;;
66542;SDS011;53395;37.360;-122.046;2023-12-07T06:58:46;5.22;;;1.27;;
66542;SDS011;53395;37.360;-122.046;2023-12-07T07:01:31;3.22;;;1.00;;
66542;SDS011;53395;37.360;-122.046;2023-12-07T07:04:15;6.35;;;1.13;;
66542;SDS011;53395;37.360;-122.046;2023-12-07T07:07:00;5.22;;;0.93;;
66542;SDS011;53395;37.360;-122.046;2023-12-07T07:09:45;5.97;;;1.10;;
66542;SDS011;53395;37.360;-122.046;2023-12-07T07:12:29;6.75;;;1.08;;
66542;SDS011;53395;37.360;-122.046;2023-12-07T07:15:14;5.47;;;1.25;;
66542;SDS011;53395;37.360;-122.046;2023-12-07T07:17:58;6.15;;;1.33;;
66542;SDS011;53395;37.360;-122.046;2023-12-07T07:20:43;7.35;;;1.35;;
66542;SDS011;53395;37.360;-122.046;2023-12-07T07:23:28;7.13;;;1.08;;
66542;SDS011;53395;37.360;-122.046;2023-12-07T07:26:13;5.00;;;1.65;;
66542;SDS011;53395;37.360;-122.046;2023-12-07T07:29:01;7.10;;;1.35;;
66542;SDS011;53395;37.360;-122.046;2023-12-07T07:31:47;6.05;;;1.40;;
66542;SDS011;53395;37.360;-122.046;2023-12-07T07:34:31;7.28;;;1.20;;
66542;SDS011;53395;37.360;-122.046;2023-12-07T07:37:16;4.97;;;1.30;;
66542;SDS011;53395;37.360;-122.046;2023-12-07T07:40:00;6.80;;;1.58;;
66542;SDS011;53395;37.360;-122.046;2023-12-07T07:42:50;6.45;;;1.35;;
66542;SDS011;53395;37.360;-122.046;2023-12-07T07:45:35;7.63;;;1.70;;
66542;SDS011;53395;37.360;-122.046;2023-12-07T07:48:19;4.72;;;1.45;;
66542;SDS011;53395;37.360;-122.046;2023-12-07T07:51:04;6.65;;;1.42;;
66542;SDS011;53395;37.360;-122.046;2023-12-07T07:53:48;5.28;;;1.08;;
66542;SDS011;53395;37.360;-122.046;2023-12-07T07:56:33;5.88;;;1.20;;
66542;SDS011;53395;37.360;-122.046;2023-12-07T07:59:17;6.22;;;1.40;;
66542;SDS011;53395;37.360;-122.046;2023-12-07T08:02:02;5.40;;;1.17;;
66542;SDS011;53395;37.360;-122.046;2023-12-07T08:04:46;4.22;;;1.05;;
66542;SDS011;53395;37.360;-122.046;2023-12-07T08:07:31;6.43;;;1.20;;
66542;SDS011;53395;37.360;-122.046;2023-12-07T08:10:15;7.57;;;1.20;;
66542;SDS011;53395;37.360;-122.046;2023-12-07T08:13:00;4.90;;;1.23;;
66542;SDS011;53395;37.360;-122.046;2023-12-07T08:15:44;6.70;;;1.15;;
66542;SDS011;53395;37.360;-122.046;2023-12-07T08:18:28;4.97;;;1.30;;
66542;SDS011;53395;37.360;-122.046;2023-12-07T08:21:22;3.30;;;1.10;;
66542;SDS011;53395;37.360;-122.046;2023-12-07T08:24:07;6.85;;;1.13;;
66542;SDS011;53395;37.360;-122.046;2023-12-07T08:26:52;6.07;;;1.20;;
66542;SDS011;53395;37.360;-122.046;2023-12-07T08:29:36;5.47;;;1.10;;
66542;SDS011;53395;37.360;-122.046;2023-12-07T08:32:21;4.45;;;1.38;;
66542;SDS011;53395;37.360;-122.046;2023-12-07T08:35:06;10.07;;;1.20;;
66542;SDS011;53395;37.360;-122.046;2023-12-07T08:37:50;8.40;;;1.38;;
66542;SDS011;53395;37.360;-122.046;2023-12-07T08:40:35;9.75;;;1.40;;
66542;SDS011;53395;37.360;-122.046;2023-12-07T08:43:20;6.68;;;1.30;;
66542;SDS011;53395;37.360;-122.046;2023-12-07T08:46:06;6.50;;;1.02;;
66542;SDS011;53395;37.360;-122.046;2023-12-07T08:48:51;6.65;;;1.50;;
66542;SDS011;53395;37.360;-122.046;2023-12-07T08:51:36;6.15;;;1.40;;
66542;SDS011;53395;37.360;-122.046;2023-12-07T08:54:20;5.70;;;1.20;;
66542;SDS011;53395;37.360;-122.046;2023-12-07T08:57:05;7.22;;;1.02;;
66542;SDS011;53395;37.360;-122.046;2023-12-07T08:59:50;4.38;;;1.20;;
66542;SDS011;53395;37.360;-122.046;2023-12-07T09:02:34;8.25;;;1.08;;
66542;SDS011;53395;37.360;-122.046;2023-12-07T09:05:18;5.25;;;1.00;;
66542;SDS011;53395;37.360;-122.046;2023-12-07T09:08:03;4.97;;;0.88;;
66542;SDS011;53395;37.360;-122.046;2023-12-07T09:10:48;3.97;;;0.90;;
66542;SDS011;53395;37.360;-122.046;2023-12-07T09:13:34;6.57;;;0.98;;
66542;SDS011;53395;37.360;-122.046;2023-12-07T09:16:18;8.88;;;1.85;;
66542;SDS011;53395;37.360;-122.046;2023-12-07T09:19:03;6.80;;;1.00;;
66542;SDS011;53395;37.360;-122.046;2023-12-07T09:21:47;7.13;;;1.10;;
66542;SDS011;53395;37.360;-122.046;2023-12-07T09:24:31;4.53;;;1.65;;
66542;SDS011;53395;37.360;-122.046;2023-12-07T09:27:16;4.85;;;1.08;;
66542;SDS011;53395;37.360;-122.046;2023-12-07T09:30:01;5.53;;;1.02;;
66542;SDS011;53395;37.360;-122.046;2023-12-07T09:32:45;4.63;;;1.52;;
66542;SDS011;53395;37.360;-122.046;2023-12-07T09:35:30;8.43;;;1.20;;
66542;SDS011;53395;37.360;-122.046;2023-12-07T09:38:15;5.32;;;0.82;;
66542;SDS011;53395;37.360;-122.046;2023-12-07T09:41:00;3.55;;;0.82;;
66542;SDS011;53395;37.360;-122.046;2023-12-07T09:43:44;6.10;;;1.08;;
66542;SDS011;53395;37.360;-122.046;2023-12-07T09:46:28;5.82;;;0.82;;
66542;SDS011;53395;37.360;-122.046;2023-12-07T09:49:14;4.63;;;0.95;;
66542;SDS011;53395;37.360;-122.046;2023-12-07T09:51:59;5.13;;;0.95;;
66542;SDS011;53395;37.360;-122.046;2023-12-07T09:54:45;3.15;;;0.85;;
66542;SDS011;53395;37.360;-122.046;2023-12-07T09:57:30;5.25;;;1.00;;
66542;SDS011;53395;37.360;-122.046;2023-12-07T10:00:15;5.75;;;1.00;;
66542;SDS011;53395;37.360;-122.046;2023-12-07T10:02:59;3.97;;;1.27;;
66542;SDS011;53395;37.360;-122.046;2023-12-07T10:05:53;4.40;;;1.00;;
66542;SDS011;53395;37.360;-122.046;2023-12-07T10:08:39;3.85;;;0.75;;
66542;SDS011;53395;37.360;-122.046;2023-12-07T10:11:23;4.60;;;0.88;;
66542;SDS011;53395;37.360;-122.046;2023-12-07T10:14:08;3.40;;;0.95;;
66542;SDS011;53395;37.360;-122.046;2023-12-07T10:16:53;5.78;;;0.95;;
66542;SDS011;53395;37.360;-122.046;2023-12-07T10:19:40;11.13;;;1.00;;
66542;SDS011;53395;37.360;-122.046;2023-12-07T10:22:25;5.88;;;1.10;;
66542;SDS011;53395;37.360;-122.046;2023-12-07T10:25:09;6.07;;;1.10;;
66542;SDS011;53395;37.360;-122.046;2023-12-07T10:27:55;7.93;;;0.85;;
66542;SDS011;53395;37.360;-122.046;2023-12-07T10:30:40;11.75;;;1.10;;
66542;SDS011;53395;37.360;-122.046;2023-12-07T10:33:25;7.38;;;1.70;;
66542;SDS011;53395;37.360;-122.046;2023-12-07T10:36:10;9.07;;;1.10;;
66542;SDS011;53395;37.360;-122.046;2023-12-07T10:38:54;9.48;;;1.02;;
66542;SDS011;53395;37.360;-122.046;2023-12-07T10:41:39;7.78;;;1.23;;
66542;SDS011;53395;37.360;-122.046;2023-12-07T10:44:25;7.97;;;0.82;;
66542;SDS011;53395;37.360;-122.046;2023-12-07T10:47:10;7.75;;;1.40;;
66542;SDS011;53395;37.360;-122.046;2023-12-07T10:49:55;10.55;;;1.17;;
66542;SDS011;53395;37.360;-122.046;2023-12-07T10:52:47;7.97;;;1.00;;
66542;SDS011;53395;37.360;-122.046;2023-12-07T10:55:33;5.60;;;0.82;;
66542;SDS011;53395;37.360;-122.046;2023-12-07T10:58:19;4.60;;;0.95;;
66542;SDS011;53395;37.360;-122.046;2023-12-07T11:01:04;4.13;;;0.77;;
66542;SDS011;53395;37.360;-122.046;2023-12-07T11:03:51;7.50;;;1.40;;
66542;SDS011;53395;37.360;-122.046;2023-12-07T11:06:37;7.07;;;1.30;;
66542;SDS011;53395;37.360;-122.046;2023-12-07T11:09:24;2.83;;;0.80;;
66542;SDS011;53395;37.360;-122.046;2023-12-07T11:15:14;5.03;;;0.90;;
66542;SDS011;53395;37.360;-122.046;2023-12-07T11:17:58;1.80;;;0.60;;
66542;SDS011;53395;37.360;-122.046;2023-12-07T11:20:46;5.22;;;0.95;;
66542;SDS011;53395;37.360;-122.046;2023-12-07T11:23:34;6.53;;;0.90;;
66542;SDS011;53395;37.360;-122.046;2023-12-07T11:26:24;4.75;;;0.77;;
66542;SDS011;53395;37.360;-122.046;2023-12-07T11:29:09;8.63;;;1.48;;
66542;SDS011;53395;37.360;-122.046;2023-12-07T11:31:56;4.65;;;0.70;;
66542;SDS011;53395;37.360;-122.046;2023-12-07T11:34:42;2.58;;;0.70;;
66542;SDS011;53395;37.360;-122.046;2023-12-07T11:37:27;4.97;;;0.70;;
66542;SDS011;53395;37.360;-122.046;2023-12-07T11:40:31;4.55;;;0.82;;
66542;SDS011;53395;37.360;-122.046;2023-12-07T11:43:17;3.47;;;0.80;;
66542;SDS011;53395;37.360;-122.046;2023-12-07T11:46:02;10.45;;;1.15;;
66542;SDS011;53395;37.360;-122.046;2023-12-07T11:48:47;8.57;;;1.08;;
66542;SDS011;53395;37.360;-122.046;2023-12-07T11:51:32;6.95;;;1.00;;
66542;SDS011;53395;37.360;-122.046;2023-12-07T11:54:17;5.50;;;1.25;;
66542;SDS011;53395;37.360;-122.046;2023-12-07T11:57:01;8.93;;;0.90;;
66542;SDS011;53395;37.360;-122.046;2023-12-07T11:59:46;5.55;;;0.80;;
66542;SDS011;53395;37.360;-122.046;2023-12-07T12:02:33;7.63;;;0.93;;
66542;SDS011;53395;37.360;-122.046;2023-12-07T12:05:20;4.70;;;0.75;;
66542;SDS011;53395;37.360;-122.046;2023-12-07T12:08:05;9.98;;;1.52;;
66542;SDS011;53395;37.360;-122.046;2023-12-07T12:10:50;2.67;;;0.90;;
66542;SDS011;53395;37.360;-122.046;2023-12-07T12:13:40;7.25;;;0.95;;
66542;SDS011;53395;37.360;-122.046;2023-12-07T12:16:25;4.50;;;0.80;;
66542;SDS011;53395;37.360;-122.046;2023-12-07T12:19:09;5.53;;;1.15;;
66542;SDS011;53395;37.360;-122.046;2023-12-07T12:21:54;2.08;;;0.80;;
66542;SDS011;53395;37.360;-122.046;2023-12-07T12:24:38;5.32;;;1.13;;
66542;SDS011;53395;37.360;-122.046;2023-12-07T12:27:23;3.08;;;0.82;;
66542;SDS011;53395;37.360;-122.046;2023-12-07T12:30:08;6.03;;;1.10;;
66542;SDS011;53395;37.360;-122.046;2023-12-07T12:32:52;4.65;;;0.90;;
66542;SDS011;53395;37.360;-122.046;2023-12-07T12:35:37;4.75;;;0.82;;
66542;SDS011;53395;37.360;-122.046;2023-12-07T12:38:21;6.18;;;0.93;;
66542;SDS011;53395;37.360;-122.046;2023-12-07T12:41:06;11.82;;;1.02;;
66542;SDS011;53395;37.360;-122.046;2023-12-07T12:43:51;6.30;;;0.73;;
66542;SDS011;53395;37.360;-122.046;2023-12-07T12:46:36;4.43;;;0.93;;
66542;SDS011;53395;37.360;-122.046;2023-12-07T12:49:21;5.30;;;1.10;;
66542;SDS011;53395;37.360;-122.046;2023-12-07T12:52:09;6.32;;;1.10;;
66542;SDS011;53395;37.360;-122.046;2023-12-07T12:54:57;3.60;;;1.00;;
66542;SDS011;53395;37.360;-122.046;2023-12-07T12:57:41;3.92;;;1.08;;
66542;SDS011;53395;37.360;-122.046;2023-12-07T13:00:25;8.07;;;1.15;;
66542;SDS011;53395;37.360;-122.046;2023-12-07T13:03:10;2.47;;;0.88;;
66542;SDS011;53395;37.360;-122.046;2023-12-07T13:05:57;8.15;;;0.90;;
66542;SDS011;53395;37.360;-122.046;2023-12-07T13:08:45;8.13;;;1.30;;
66542;SDS011;53395;37.360;-122.046;2023-12-07T13:11:29;7.85;;;1.02;;
66542;SDS011;53395;37.360;-122.046;2023-12-07T13:14:14;6.45;;;1.02;;
66542;SDS011;53395;37.360;-122.046;2023-12-07T13:16:58;6.97;;;1.10;;
66542;SDS011;53395;37.360;-122.046;2023-12-07T13:19:43;4.43;;;0.90;;
66542;SDS011;53395;37.360;-122.046;2023-12-07T13:22:27;3.05;;;0.80;;
66542;SDS011;53395;37.360;-122.046;2023-12-07T13:25:12;4.50;;;1.00;;
66542;SDS011;53395;37.360;-122.046;2023-12-07T13:27:59;2.88;;;0.80;;
66542;SDS011;53395;37.360;-122.046;2023-12-07T13:30:44;4.72;;;1.15;;
66542;SDS011;53395;37.360;-122.046;2023-12-07T13:33:29;3.38;;;0.90;;
66542;SDS011;53395;37.360;-122.046;2023-12-07T13:36:13;5.13;;;0.98;;
66542;SDS011;53395;37.360;-122.046;2023-12-07T13:38:57;4.43;;;1.05;;
66542;SDS011;53395;37.360;-122.046;2023-12-07T13:41:42;3.15;;;0.93;;
66542;SDS011;53395;37.360;-122.046;2023-12-07T13:44:26;3.72;;;1.10;;
66542;SDS011;53395;37.360;-122.046;2023-12-07T13:47:11;4.22;;;0.80;;
66542;SDS011;53395;37.360;-122.046;2023-12-07T13:49:55;3.90;;;0.90;;
66542;SDS011;53395;37.360;-122.046;2023-12-07T13:52:43;7.38;;;1.15;;
66542;SDS011;53395;37.360;-122.046;2023-12-07T13:55:28;2.50;;;0.80;;
66542;SDS011;53395;37.360;-122.046;2023-12-07T13:58:12;2.65;;;0.90;;
66542;SDS011;53395;37.360;-122.046;2023-12-07T14:00:57;4.35;;;1.00;;
66542;SDS011;53395;37.360;-122.046;2023-12-07T14:03:41;3.38;;;0.90;;
66542;SDS011;53395;37.360;-122.046;2023-12-07T14:06:26;4.03;;;0.75;;
66542;SDS011;53395;37.360;-122.046;2023-12-07T14:09:11;5.20;;;0.82;;
66542;SDS011;53395;37.360;-122.046;2023-12-07T14:11:55;6.03;;;1.20;;
66542;SDS011;53395;37.360;-122.046;2023-12-07T14:14:40;4.50;;;0.80;;
66542;SDS011;53395;37.360;-122.046;2023-12-07T14:17:25;4.28;;;1.00;;
66542;SDS011;53395;37.360;-122.046;2023-12-07T14:20:09;5.43;;;1.00;;
66542;SDS011;53395;37.360;-122.046;2023-12-07T14:22:54;7.47;;;1.17;;
66542;SDS011;53395;37.360;-122.046;2023-12-07T14:25:39;6.80;;;0.95;;
66542;SDS011;53395;37.360;-122.046;2023-12-07T14:28:24;6.53;;;1.42;;
66542;SDS011;53395;37.360;-122.046;2023-12-07T14:31:08;5.93;;;1.02;;
66542;SDS011;53395;37.360;-122.046;2023-12-07T14:34:00;3.72;;;0.85;;
66542;SDS011;53395;37.360;-122.046;2023-12-07T14:36:45;6.72;;;1.13;;
66542;SDS011;53395;37.360;-122.046;2023-12-07T14:39:29;8.75;;;1.30;;
66542;SDS011;53395;37.360;-122.046;2023-12-07T14:42:14;5.20;;;1.08;;
66542;SDS011;53395;37.360;-122.046;2023-12-07T14:44:58;6.07;;;1.00;;
66542;SDS011;53395;37.360;-122.046;2023-12-07T14:47:43;5.50;;;0.90;;
66542;SDS011;53395;37.360;-122.046;2023-12-07T14:53:13;3.25;;;0.80;;
66542;SDS011;53395;37.360;-122.046;2023-12-07T14:58:42;6.55;;;1.05;;
66542;SDS011;53395;37.360;-122.046;2023-12-07T15:01:27;4.60;;;1.23;;
66542;SDS011;53395;37.360;-122.046;2023-12-07T15:04:11;6.72;;;1.10;;
66542;SDS011;53395;37.360;-122.046;2023-12-07T15:06:56;7.43;;;1.20;;
66542;SDS011;53395;37.360;-122.046;2023-12-07T15:09:40;5.47;;;1.13;;
66542;SDS011;53395;37.360;-122.046;2023-12-07T15:12:25;2.25;;;0.70;;
66542;SDS011;53395;37.360;-122.046;2023-12-07T15:15:09;5.72;;;1.35;;
66542;SDS011;53395;37.360;-122.046;2023-12-07T15:17:54;6.07;;;0.90;;
66542;SDS011;53395;37.360;-122.046;2023-12-07T15:20:38;8.10;;;1.27;;
66542;SDS011;53395;37.360;-122.046;2023-12-07T15:23:23;4.20;;;1.00;;
66542;SDS011;53395;37.360;-122.046;2023-12-07T15:26:08;7.18;;;1.48;;
66542;SDS011;53395;37.360;-122.046;2023-12-07T15:28:53;5.85;;;1.30;;
66542;SDS011;53395;37.360;-122.046;2023-12-07T15:31:37;6.53;;;1.10;;
66542;SDS011;53395;37.360;-122.046;2023-12-07T15:34:22;10.13;;;1.00;;
66542;SDS011;53395;37.360;-122.046;2023-12-07T15:37:07;8.43;;;1.90;;
66542;SDS011;53395;37.360;-122.046;2023-12-07T15:39:54;5.35;;;1.27;;
66542;SDS011;53395;37.360;-122.046;2023-12-07T15:42:39;6.63;;;1.25;;
66542;SDS011;53395;37.360;-122.046;2023-12-07T15:45:24;6.70;;;1.20;;
66542;SDS011;53395;37.360;-122.046;2023-12-07T15:48:09;6.20;;;1.30;;
66542;SDS011;53395;37.360;-122.046;2023-12-07T15:50:53;8.27;;;1.30;;
66542;SDS011;53395;37.360;-122.046;2023-12-07T15:53:38;10.57;;;1.50;;
66542;SDS011;53395;37.360;-122.046;2023-12-07T15:56:22;6.90;;;1.60;;
66542;SDS011;53395;37.360;-122.046;2023-12-07T15:59:07;7.03;;;1.60;;